sensor_id;sensor_type;location;lat;lon;timestamp;pressure;altitude;pressure_sealevel;temperature;humidity
67840;BME280;54636;51.684;5.142;2023-02-13T00:00:28;103801.28;;;6.94;100.00
67840;BME280;54636;51.684;5.142;2023-02-13T00:02:56;103802.06;;;6.95;100.00
67840;BME280;54636;51.684;5.142;2023-02-13T00:05:21;103802.84;;;6.96;100.00
67840;BME280;54636;51.684;5.142;2023-02-13T00:07:47;103798.19;;;6.92;100.00
67840;BME280;54636;51.684;5.142;2023-02-13T00:10:12;103792.03;;;6.92;100.00
67840;BME280;54636;51.684;5.142;2023-02-13T00:12:38;103790.47;;;6.91;100.00
67840;BME280;54636;51.684;5.142;2023-02-13T00:15:06;103791.63;;;6.93;100.00
67840;BME280;54636;51.684;5.142;2023-02-13T00:17:31;103787.78;;;6.91;100.00
67840;BME280;54636;51.684;5.142;2023-02-13T00:19:57;103791.63;;;6.90;100.00
67840;BME280;54636;51.684;5.142;2023-02-13T00:22:22;103784.28;;;6.90;100.00
67840;BME280;54636;51.684;5.142;2023-02-13T00:24:48;103772.31;;;6.88;100.00
67840;BME280;54636;51.684;5.142;2023-02-13T00:27:14;103780.44;;;6.91;100.00
67840;BME280;54636;51.684;5.142;2023-02-13T00:29:39;103779.66;;;6.87;100.00
67840;BME280;54636;51.684;5.142;2023-02-13T00:32:04;103776.56;;;6.89;100.00
67840;BME280;54636;51.684;5.142;2023-02-13T00:34:30;103780.03;;;6.89;100.00
67840;BME280;54636;51.684;5.142;2023-02-13T00:36:55;103772.31;;;6.88;100.00
67840;BME280;54636;51.684;5.142;2023-02-13T00:39:21;103771.16;;;6.89;100.00
67840;BME280;54636;51.684;5.142;2023-02-13T00:41:46;103773.50;;;6.90;100.00
67840;BME280;54636;51.684;5.142;2023-02-13T00:44:12;103772.69;;;6.86;100.00
67840;BME280;54636;51.684;5.142;2023-02-13T00:46:37;103776.56;;;6.89;100.00
67840;BME280;54636;51.684;5.142;2023-02-13T00:49:03;103780.81;;;6.90;100.00
67840;BME280;54636;51.684;5.142;2023-02-13T00:51:28;103785.44;;;6.89;100.00
67840;BME280;54636;51.684;5.142;2023-02-13T00:53:54;103784.69;;;6.89;100.00
67840;BME280;54636;51.684;5.142;2023-02-13T00:56:19;103773.84;;;6.85;100.00
67840;BME280;54636;51.684;5.142;2023-02-13T00:58:45;103773.47;;;6.87;100.00
67840;BME280;54636;51.684;5.142;2023-02-13T01:01:10;103777.72;;;6.88;100.00
67840;BME280;54636;51.684;5.142;2023-02-13T01:03:36;103772.69;;;6.86;100.00
67840;BME280;54636;51.684;5.142;2023-02-13T01:06:02;103771.94;;;6.89;100.00
67840;BME280;54636;51.684;5.142;2023-02-13T01:08:27;103772.69;;;6.86;100.00
67840;BME280;54636;51.684;5.142;2023-02-13T01:10:53;103767.69;;;6.85;100.00
67840;BME280;54636;51.684;5.142;2023-02-13T01:13:19;103775.00;;;6.84;100.00
67840;BME280;54636;51.684;5.142;2023-02-13T01:15:46;103776.19;;;6.87;100.00
67840;BME280;54636;51.684;5.142;2023-02-13T01:18:13;103769.59;;;6.84;100.00
67840;BME280;54636;51.684;5.142;2023-02-13T01:20:40;103764.22;;;6.84;100.00
67840;BME280;54636;51.684;5.142;2023-02-13T01:23:06;103768.84;;;6.84;100.00
67840;BME280;54636;51.684;5.142;2023-02-13T01:25:32;103771.16;;;6.82;100.00
67840;BME280;54636;51.684;5.142;2023-02-13T01:27:57;103765.75;;;6.82;100.00
67840;BME280;54636;51.684;5.142;2023-02-13T01:30:22;103761.13;;;6.82;100.00
67840;BME280;54636;51.684;5.142;2023-02-13T01:32:48;103752.22;;;6.78;100.00
67840;BME280;54636;51.684;5.142;2023-02-13T01:35:14;103738.69;;;6.71;100.00
67840;BME280;54636;51.684;5.142;2023-02-13T01:37:40;103737.91;;;6.67;100.00
67840;BME280;54636;51.684;5.142;2023-02-13T01:40:07;103756.84;;;6.78;100.00
67840;BME280;54636;51.684;5.142;2023-02-13T01:42:34;103753.75;;;6.76;100.00
67840;BME280;54636;51.684;5.142;2023-02-13T01:47:36;103753.00;;;6.75;100.00
67840;BME280;54636;51.684;5.142;2023-02-13T01:50:17;103757.22;;;6.76;100.00
67840;BME280;54636;51.684;5.142;2023-02-13T01:52:48;103759.94;;;6.76;100.00
67840;BME280;54636;51.684;5.142;2023-02-13T01:55:15;103749.53;;;6.78;100.00
67840;BME280;54636;51.684;5.142;2023-02-13T01:57:42;103753.38;;;6.77;100.00
67840;BME280;54636;51.684;5.142;2023-02-13T02:00:12;103752.59;;;6.77;100.00
67840;BME280;54636;51.684;5.142;2023-02-13T02:02:42;103742.19;;;6.75;100.00
67840;BME280;54636;51.684;5.142;2023-02-13T02:05:09;103748.34;;;6.72;100.00
67840;BME280;54636;51.684;5.142;2023-02-13T02:07:36;103748.34;;;6.72;100.00
67840;BME280;54636;51.684;5.142;2023-02-13T02:10:09;103745.25;;;6.70;100.00
67840;BME280;54636;51.684;5.142;2023-02-13T02:12:57;103738.69;;;6.71;100.00
67840;BME280;54636;51.684;5.142;2023-02-13T02:15:23;103743.72;;;6.69;100.00
67840;BME280;54636;51.684;5.142;2023-02-13T02:17:48;103743.72;;;6.69;100.00
67840;BME280;54636;51.684;5.142;2023-02-13T02:20:27;103742.16;;;6.68;100.00
67840;BME280;54636;51.684;5.142;2023-02-13T02:44:55;103735.59;;;6.69;100.00
67840;BME280;54636;51.684;5.142;2023-02-13T02:47:30;103754.13;;;6.71;100.00
67840;BME280;54636;51.684;5.142;2023-02-13T02:50:48;103747.19;;;6.73;100.00
67840;BME280;54636;51.684;5.142;2023-02-13T02:56:49;103736.38;;;6.73;100.00
67840;BME280;54636;51.684;5.142;2023-02-13T02:59:16;103734.44;;;6.70;100.00
67840;BME280;54636;51.684;5.142;2023-02-13T03:02:03;103737.91;;;6.71;100.00
67840;BME280;54636;51.684;5.142;2023-02-13T03:04:50;103734.84;;;6.69;100.00
67840;BME280;54636;51.684;5.142;2023-02-13T03:07:36;103735.97;;;6.68;100.00
67840;BME280;54636;51.684;5.142;2023-02-13T03:10:08;103738.31;;;6.69;100.00
67840;BME280;54636;51.684;5.142;2023-02-13T03:13:03;103730.59;;;6.68;100.00
67840;BME280;54636;51.684;5.142;2023-02-13T03:15:49;103730.56;;;6.64;100.00
67840;BME280;54636;51.684;5.142;2023-02-13T03:18:40;103729.78;;;6.60;100.00
67840;BME280;54636;51.684;5.142;2023-02-13T03:27:52;103725.16;;;6.64;100.00
67840;BME280;54636;51.684;5.142;2023-02-13T03:31:04;103721.69;;;6.64;100.00
67840;BME280;54636;51.684;5.142;2023-02-13T03:45:02;103728.63;;;6.61;100.00
67840;BME280;54636;51.684;5.142;2023-02-13T03:47:50;103727.44;;;6.55;100.00
67840;BME280;54636;51.684;5.142;2023-02-13T03:50:17;103730.16;;;6.44;100.00
67840;BME280;54636;51.684;5.142;2023-02-13T03:52:54;103727.38;;;6.30;100.00
67840;BME280;54636;51.684;5.142;2023-02-13T03:55:24;103732.72;;;6.16;100.00
67840;BME280;54636;51.684;5.142;2023-02-13T03:58:16;103734.94;;;6.00;100.00
67840;BME280;54636;51.684;5.142;2023-02-13T04:01:03;103729.03;;;5.80;100.00
67840;BME280;54636;51.684;5.142;2023-02-13T04:06:35;103728.84;;;5.55;100.00
67840;BME280;54636;51.684;5.142;2023-02-13T04:09:02;103727.63;;;5.45;100.00
67840;BME280;54636;51.684;5.142;2023-02-13T04:12:15;103730.22;;;5.35;100.00
67840;BME280;54636;51.684;5.142;2023-02-13T04:14:37;103729.34;;;5.20;100.00
67840;BME280;54636;51.684;5.142;2023-02-13T04:17:07;103729.28;;;5.13;100.00
67840;BME280;54636;51.684;5.142;2023-02-13T04:19:36;103724.16;;;5.01;100.00
67840;BME280;54636;51.684;5.142;2023-02-13T04:22:02;103724.50;;;4.95;100.00
67840;BME280;54636;51.684;5.142;2023-02-13T04:24:28;103717.03;;;4.82;100.00
67840;BME280;54636;51.684;5.142;2023-02-13T04:26:54;103716.59;;;4.76;100.00
67840;BME280;54636;51.684;5.142;2023-02-13T04:29:24;103723.06;;;4.68;100.00
67840;BME280;54636;51.684;5.142;2023-02-13T04:31:50;103708.69;;;4.57;100.00
67840;BME280;54636;51.684;5.142;2023-02-13T04:34:16;103715.56;;;4.51;100.00
67840;BME280;54636;51.684;5.142;2023-02-13T04:36:41;103713.97;;;4.46;100.00
67840;BME280;54636;51.684;5.142;2023-02-13T04:39:07;103720.06;;;4.40;100.00
67840;BME280;54636;51.684;5.142;2023-02-13T04:41:32;103718.81;;;4.34;100.00
67840;BME280;54636;51.684;5.142;2023-02-13T04:43:57;103713.34;;;4.26;100.00
67840;BME280;54636;51.684;5.142;2023-02-13T04:46:23;103716.00;;;4.23;100.00
67840;BME280;54636;51.684;5.142;2023-02-13T04:48:48;103713.22;;;4.16;100.00
67840;BME280;54636;51.684;5.142;2023-02-13T04:51:13;103719.69;;;4.11;100.00
67840;BME280;54636;51.684;5.142;2023-02-13T04:53:39;103710.03;;;4.07;100.00
67840;BME280;54636;51.684;5.142;2023-02-13T04:56:04;103705.31;;;4.00;100.00
67840;BME280;54636;51.684;5.142;2023-02-13T04:58:30;103711.06;;;3.98;100.00
67840;BME280;54636;51.684;5.142;2023-02-13T05:00:55;103709.41;;;3.90;100.00
67840;BME280;54636;51.684;5.142;2023-02-13T05:03:21;103707.28;;;4.03;100.00
67840;BME280;54636;51.684;5.142;2023-02-13T05:05:47;103710.88;;;4.14;100.00
67840;BME280;54636;51.684;5.142;2023-02-13T05:08:13;103703.91;;;4.10;100.00
67840;BME280;54636;51.684;5.142;2023-02-13T05:10:38;103705.31;;;4.00;100.00
67840;BME280;54636;51.684;5.142;2023-02-13T05:13:04;103699.47;;;3.94;100.00
67840;BME280;54636;51.684;5.142;2023-02-13T05:15:29;103700.97;;;3.92;100.00
67840;BME280;54636;51.684;5.142;2023-02-13T05:17:55;103706.69;;;3.87;100.00
67840;BME280;54636;51.684;5.142;2023-02-13T05:20:20;103708.19;;;3.84;100.00
67840;BME280;54636;51.684;5.142;2023-02-13T05:22:47;103705.81;;;3.79;100.00
67840;BME280;54636;51.684;5.142;2023-02-13T05:25:34;103707.38;;;3.80;100.00
67840;BME280;54636;51.684;5.142;2023-02-13T05:27:59;103697.34;;;3.77;100.00
67840;BME280;54636;51.684;5.142;2023-02-13T05:30:25;103699.66;;;3.79;100.00
67840;BME280;54636;51.684;5.142;2023-02-13T05:32:50;103702.03;;;3.84;100.00
67840;BME280;54636;51.684;5.142;2023-02-13T05:35:25;103694.03;;;3.87;100.00
67840;BME280;54636;51.684;5.142;2023-02-13T05:37:50;103685.19;;;3.87;100.00
67840;BME280;54636;51.684;5.142;2023-02-13T05:40:16;103702.34;;;4.09;100.00
67840;BME280;54636;51.684;5.142;2023-02-13T05:42:41;103697.25;;;4.00;100.00
67840;BME280;54636;51.684;5.142;2023-02-13T05:45:08;103701.84;;;4.00;100.00
67840;BME280;54636;51.684;5.142;2023-02-13T05:47:34;103697.84;;;3.86;100.00
67840;BME280;54636;51.684;5.142;2023-02-13T05:49:59;103686.22;;;3.79;100.00
67840;BME280;54636;51.684;5.142;2023-02-13T05:52:24;103701.94;;;3.77;100.00
67840;BME280;54636;51.684;5.142;2023-02-13T05:54:50;103702.19;;;3.68;100.00
67840;BME280;54636;51.684;5.142;2023-02-13T05:57:15;103705.50;;;3.58;100.00
67840;BME280;54636;51.684;5.142;2023-02-13T05:59:41;103702.22;;;3.45;100.00
67840;BME280;54636;51.684;5.142;2023-02-13T06:02:06;103695.13;;;3.34;100.00
67840;BME280;54636;51.684;5.142;2023-02-13T06:04:32;103703.84;;;3.27;100.00
67840;BME280;54636;51.684;5.142;2023-02-13T06:06:58;103699.94;;;3.21;100.00
67840;BME280;54636;51.684;5.142;2023-02-13T06:09:23;103701.00;;;3.16;100.00
67840;BME280;54636;51.684;5.142;2023-02-13T06:11:49;103703.56;;;3.09;100.00
67840;BME280;54636;51.684;5.142;2023-02-13T06:14:14;103708.81;;;3.02;100.00
67840;BME280;54636;51.684;5.142;2023-02-13T06:16:40;103705.72;;;3.00;100.00
67840;BME280;54636;51.684;5.142;2023-02-13T06:19:06;103704.88;;;2.96;100.00
67840;BME280;54636;51.684;5.142;2023-02-13T06:21:31;103707.50;;;2.92;100.00
67840;BME280;54636;51.684;5.142;2023-02-13T06:24:06;103700.50;;;2.88;100.00
67840;BME280;54636;51.684;5.142;2023-02-13T06:26:32;103707.78;;;2.87;100.00
67840;BME280;54636;51.684;5.142;2023-02-13T06:28:57;103706.59;;;2.85;100.00
67840;BME280;54636;51.684;5.142;2023-02-13T06:31:23;103711.09;;;2.81;100.00
67840;BME280;54636;51.684;5.142;2023-02-13T06:33:48;103714.09;;;2.76;100.00
67840;BME280;54636;51.684;5.142;2023-02-13T06:36:13;103716.69;;;2.72;100.00
67840;BME280;54636;51.684;5.142;2023-02-13T06:38:39;103708.16;;;2.67;100.00
67840;BME280;54636;51.684;5.142;2023-02-13T06:41:04;103717.69;;;2.64;100.00
67840;BME280;54636;51.684;5.142;2023-02-13T06:43:31;103713.41;;;2.59;100.00
67840;BME280;54636;51.684;5.142;2023-02-13T06:45:57;103713.75;;;2.58;100.00
67840;BME280;54636;51.684;5.142;2023-02-13T06:48:22;103707.91;;;2.52;100.00
67840;BME280;54636;51.684;5.142;2023-02-13T06:50:47;103715.97;;;2.52;100.00
67840;BME280;54636;51.684;5.142;2023-02-13T06:53:16;103712.69;;;2.43;100.00
67840;BME280;54636;51.684;5.142;2023-02-13T06:55:42;103720.03;;;2.46;100.00
67840;BME280;54636;51.684;5.142;2023-02-13T06:58:08;103716.44;;;2.39;100.00
67840;BME280;54636;51.684;5.142;2023-02-13T07:00:33;103711.84;;;2.39;100.00
67840;BME280;54636;51.684;5.142;2023-02-13T07:03:03;103699.91;;;2.37;100.00
67840;BME280;54636;51.684;5.142;2023-02-13T07:05:30;103708.25;;;2.51;100.00
67840;BME280;54636;51.684;5.142;2023-02-13T07:07:55;103712.06;;;2.50;100.00
67840;BME280;54636;51.684;5.142;2023-02-13T07:10:21;103713.28;;;2.52;100.00
67840;BME280;54636;51.684;5.142;2023-02-13T07:12:47;103711.84;;;2.58;100.00
67840;BME280;54636;51.684;5.142;2023-02-13T07:15:12;103713.09;;;2.64;100.00
67840;BME280;54636;51.684;5.142;2023-02-13T07:17:37;103715.78;;;2.64;100.00
67840;BME280;54636;51.684;5.142;2023-02-13T07:20:04;103720.03;;;2.65;100.00
67840;BME280;54636;51.684;5.142;2023-02-13T07:22:33;103719.66;;;2.67;100.00
67840;BME280;54636;51.684;5.142;2023-02-13T07:24:59;103718.59;;;2.72;100.00
67840;BME280;54636;51.684;5.142;2023-02-13T07:27:25;103718.97;;;2.70;100.00
67840;BME280;54636;51.684;5.142;2023-02-13T07:29:54;103720.78;;;2.66;100.00
67840;BME280;54636;51.684;5.142;2023-02-13T07:32:20;103724.19;;;2.63;100.00
67840;BME280;54636;51.684;5.142;2023-02-13T07:34:45;103709.38;;;2.50;100.00
67840;BME280;54636;51.684;5.142;2023-02-13T07:37:11;103726.81;;;2.59;100.00
67840;BME280;54636;51.684;5.142;2023-02-13T07:39:36;103724.91;;;2.60;100.00
67840;BME280;54636;51.684;5.142;2023-02-13T07:42:04;103724.50;;;2.58;100.00
67840;BME280;54636;51.684;5.142;2023-02-13T07:44:29;103734.16;;;2.62;100.00
67840;BME280;54636;51.684;5.142;2023-02-13T07:46:55;103714.47;;;2.55;100.00
67840;BME280;54636;51.684;5.142;2023-02-13T07:49:20;103728.06;;;2.65;100.00
67840;BME280;54636;51.684;5.142;2023-02-13T07:51:45;103741.56;;;2.69;100.00
67840;BME280;54636;51.684;5.142;2023-02-13T07:54:11;103733.16;;;2.71;100.00
67840;BME280;54636;51.684;5.142;2023-02-13T07:56:36;103736.75;;;2.78;100.00
67840;BME280;54636;51.684;5.142;2023-02-13T07:59:02;103741.06;;;2.83;100.00
67840;BME280;54636;51.684;5.142;2023-02-13T08:01:27;103752.28;;;2.88;100.00
67840;BME280;54636;51.684;5.142;2023-02-13T08:03:52;103730.69;;;2.81;100.00
67840;BME280;54636;51.684;5.142;2023-02-13T08:06:19;103751.72;;;2.98;100.00
67840;BME280;54636;51.684;5.142;2023-02-13T08:08:44;103752.63;;;3.06;100.00
67840;BME280;54636;51.684;5.142;2023-02-13T08:11:31;103758.47;;;3.12;100.00
67840;BME280;54636;51.684;5.142;2023-02-13T08:14:16;103749.41;;;3.20;100.00
67840;BME280;54636;51.684;5.142;2023-02-13T08:16:41;103753.03;;;3.31;100.00
67840;BME280;54636;51.684;5.142;2023-02-13T08:19:07;103764.75;;;3.42;100.00
67840;BME280;54636;51.684;5.142;2023-02-13T08:21:32;103769.53;;;3.52;100.00
67840;BME280;54636;51.684;5.142;2023-02-13T08:23:59;103773.09;;;3.60;100.00
67840;BME280;54636;51.684;5.142;2023-02-13T08:26:24;103768.63;;;3.68;100.00
67840;BME280;54636;51.684;5.142;2023-02-13T08:28:50;103763.00;;;3.76;100.00
67840;BME280;54636;51.684;5.142;2023-02-13T08:31:15;103769.69;;;3.86;100.00
67840;BME280;54636;51.684;5.142;2023-02-13T08:33:40;103768.19;;;3.92;100.00
67840;BME280;54636;51.684;5.142;2023-02-13T08:36:06;103769.66;;;4.12;100.00
67840;BME280;54636;51.684;5.142;2023-02-13T08:38:32;103769.94;;;4.34;100.00
67840;BME280;54636;51.684;5.142;2023-02-13T08:40:57;103763.34;;;4.27;100.00
67840;BME280;54636;51.684;5.142;2023-02-13T08:43:23;103763.19;;;4.47;100.00
67840;BME280;54636;51.684;5.142;2023-02-13T08:45:48;103768.59;;;4.47;100.00
67840;BME280;54636;51.684;5.142;2023-02-13T08:48:14;103769.06;;;4.56;100.00
67840;BME280;54636;51.684;5.142;2023-02-13T08:50:39;103778.31;;;4.58;100.00
67840;BME280;54636;51.684;5.142;2023-02-13T08:53:05;103772.78;;;4.78;100.00
67840;BME280;54636;51.684;5.142;2023-02-13T08:55:30;103774.78;;;4.84;100.00
67840;BME280;54636;51.684;5.142;2023-02-13T08:58:00;103773.97;;;4.80;100.00
67840;BME280;54636;51.684;5.142;2023-02-13T09:00:26;103786.38;;;4.88;100.00
67840;BME280;54636;51.684;5.142;2023-02-13T09:02:52;103779.50;;;4.94;100.00
67840;BME280;54636;51.684;5.142;2023-02-13T09:05:18;103785.38;;;5.04;100.00
67840;BME280;54636;51.684;5.142;2023-02-13T09:07:43;103785.47;;;5.11;100.00
67840;BME280;54636;51.684;5.142;2023-02-13T09:10:09;103787.03;;;5.15;100.00
67840;BME280;54636;51.684;5.142;2023-02-13T09:12:35;103786.31;;;5.22;100.00
67840;BME280;54636;51.684;5.142;2023-02-13T09:15:00;103783.66;;;5.25;100.00
67840;BME280;54636;51.684;5.142;2023-02-13T09:17:25;103787.19;;;5.33;100.00
67840;BME280;54636;51.684;5.142;2023-02-13T09:19:51;103789.91;;;5.37;100.00
67840;BME280;54636;51.684;5.142;2023-02-13T09:22:16;103784.19;;;5.42;100.00
67840;BME280;54636;51.684;5.142;2023-02-13T09:24:42;103787.31;;;5.47;100.00
67840;BME280;54636;51.684;5.142;2023-02-13T09:27:07;103774.69;;;5.55;100.00
67840;BME280;54636;51.684;5.142;2023-02-13T09:29:33;103791.72;;;5.66;100.00
67840;BME280;54636;51.684;5.142;2023-02-13T09:31:59;103791.81;;;5.77;100.00
67840;BME280;54636;51.684;5.142;2023-02-13T09:34:24;103780.22;;;5.73;100.00
67840;BME280;54636;51.684;5.142;2023-02-13T09:36:51;103786.03;;;5.78;100.00
67840;BME280;54636;51.684;5.142;2023-02-13T09:39:17;103785.66;;;5.80;100.00
67840;BME280;54636;51.684;5.142;2023-02-13T09:41:44;103775.28;;;5.82;100.00
67840;BME280;54636;51.684;5.142;2023-02-13T09:44:14;103774.91;;;5.87;100.00
67840;BME280;54636;51.684;5.142;2023-02-13T09:47:18;103785.41;;;5.99;100.00
67840;BME280;54636;51.684;5.142;2023-02-13T09:49:53;103786.25;;;6.10;100.00
67840;BME280;54636;51.684;5.142;2023-02-13T09:52:20;103792.84;;;6.13;100.00
67840;BME280;54636;51.684;5.142;2023-02-13T09:54:45;103796.75;;;6.22;100.00
67840;BME280;54636;51.684;5.142;2023-02-13T09:57:32;103792.97;;;6.34;100.00
67840;BME280;54636;51.684;5.142;2023-02-13T10:00:15;103785.69;;;6.45;100.00
67840;BME280;54636;51.684;5.142;2023-02-13T10:14:23;103782.00;;;7.00;100.00
67840;BME280;54636;51.684;5.142;2023-02-13T10:16:59;103791.66;;;7.18;100.00
67840;BME280;54636;51.684;5.142;2023-02-13T10:22:10;103780.13;;;7.39;100.00
67840;BME280;54636;51.684;5.142;2023-02-13T10:24:50;103782.06;;;7.53;100.00
67840;BME280;54636;51.684;5.142;2023-02-13T10:27:24;103772.00;;;7.71;100.00
67840;BME280;54636;51.684;5.142;2023-02-13T10:29:55;103782.41;;;7.83;100.00
67840;BME280;54636;51.684;5.142;2023-02-13T10:35:47;103784.31;;;8.04;100.00
67840;BME280;54636;51.684;5.142;2023-02-13T10:38:20;103781.56;;;8.22;100.00
67840;BME280;54636;51.684;5.142;2023-02-13T10:46:24;103771.09;;;8.42;100.00
67840;BME280;54636;51.684;5.142;2023-02-13T10:51:44;103764.38;;;8.64;97.99
67840;BME280;54636;51.684;5.142;2023-02-13T10:54:23;103765.91;;;8.69;98.37
67840;BME280;54636;51.684;5.142;2023-02-13T11:02:29;103768.81;;;9.03;96.48
67840;BME280;54636;51.684;5.142;2023-02-13T11:05:00;103756.81;;;9.04;96.25
67840;BME280;54636;51.684;5.142;2023-02-13T11:07:26;103768.31;;;9.15;95.60
67840;BME280;54636;51.684;5.142;2023-02-13T11:10:00;103756.25;;;9.23;94.80
67840;BME280;54636;51.684;5.142;2023-02-13T11:12:30;103764.31;;;9.34;92.42
67840;BME280;54636;51.684;5.142;2023-02-13T11:15:02;103760.03;;;9.36;92.13
67840;BME280;54636;51.684;5.142;2023-02-13T11:17:31;103756.53;;;9.39;91.97
67840;BME280;54636;51.684;5.142;2023-02-13T11:19:59;103752.97;;;9.46;92.55
67840;BME280;54636;51.684;5.142;2023-02-13T11:22:37;103747.09;;;9.54;91.00
67840;BME280;54636;51.684;5.142;2023-02-13T11:25:24;103738.91;;;9.58;92.49
67840;BME280;54636;51.684;5.142;2023-02-13T11:28:03;103713.34;;;9.55;88.83
67840;BME280;54636;51.684;5.142;2023-02-13T11:30:36;103735.34;;;9.68;92.66
67840;BME280;54636;51.684;5.142;2023-02-13T11:35:44;103728.94;;;9.85;87.89
67840;BME280;54636;51.684;5.142;2023-02-13T11:40:37;103732.34;;;9.93;87.67
67840;BME280;54636;51.684;5.142;2023-02-13T11:43:06;103725.06;;;9.83;87.50
67840;BME280;54636;51.684;5.142;2023-02-13T11:45:32;103729.59;;;9.97;84.84
67840;BME280;54636;51.684;5.142;2023-02-13T11:47:58;103721.47;;;9.93;85.87
67840;BME280;54636;51.684;5.142;2023-02-13T11:50:27;103716.00;;;9.97;87.55
67840;BME280;54636;51.684;5.142;2023-02-13T11:53:19;103717.03;;;10.10;86.98
67840;BME280;54636;51.684;5.142;2023-02-13T11:58:27;103721.56;;;10.23;84.12
67840;BME280;54636;51.684;5.142;2023-02-13T12:04:15;103707.88;;;10.31;86.77
67840;BME280;54636;51.684;5.142;2023-02-13T12:06:57;103705.25;;;10.23;86.55
67840;BME280;54636;51.684;5.142;2023-02-13T12:09:23;103702.84;;;10.29;86.87
67840;BME280;54636;51.684;5.142;2023-02-13T12:11:51;103691.50;;;10.38;87.47
67840;BME280;54636;51.684;5.142;2023-02-13T12:14:21;103690.66;;;10.41;86.03
67840;BME280;54636;51.684;5.142;2023-02-13T12:16:55;103685.66;;;10.39;86.32
67840;BME280;54636;51.684;5.142;2023-02-13T12:19:32;103683.22;;;10.45;86.89
67840;BME280;54636;51.684;5.142;2023-02-13T12:27:28;103679.06;;;10.64;84.45
67840;BME280;54636;51.684;5.142;2023-02-13T12:47:21;103663.88;;;10.66;82.60
67840;BME280;54636;51.684;5.142;2023-02-13T12:49:56;103662.25;;;10.72;81.68
67840;BME280;54636;51.684;5.142;2023-02-13T12:52:57;103654.75;;;10.80;81.66
67840;BME280;54636;51.684;5.142;2023-02-13T12:58:44;103650.44;;;10.82;79.63
67840;BME280;54636;51.684;5.142;2023-02-13T13:12:57;103640.13;;;10.70;81.35
67840;BME280;54636;51.684;5.142;2023-02-13T13:15:46;103636.19;;;10.75;82.28
67840;BME280;54636;51.684;5.142;2023-02-13T13:18:41;103637.97;;;10.85;81.94
67840;BME280;54636;51.684;5.142;2023-02-13T13:26:44;103630.16;;;10.87;78.99
67840;BME280;54636;51.684;5.142;2023-02-13T13:29:19;103632.59;;;10.81;79.96
67840;BME280;54636;51.684;5.142;2023-02-13T13:31:53;103625.19;;;10.82;80.31
67840;BME280;54636;51.684;5.142;2023-02-13T13:34:23;103605.16;;;10.72;81.11
67840;BME280;54636;51.684;5.142;2023-02-13T13:37:12;103608.13;;;10.81;81.90
67840;BME280;54636;51.684;5.142;2023-02-13T13:43:09;103611.13;;;10.87;80.95
67840;BME280;54636;51.684;5.142;2023-02-13T13:48:35;103605.63;;;10.91;82.96
67840;BME280;54636;51.684;5.142;2023-02-13T13:51:05;103606.03;;;10.89;82.23
67840;BME280;54636;51.684;5.142;2023-02-13T13:53:31;103608.19;;;11.01;80.85
67840;BME280;54636;51.684;5.142;2023-02-13T13:55:59;103601.72;;;10.92;80.78
67840;BME280;54636;51.684;5.142;2023-02-13T14:01:29;103597.94;;;10.85;81.81
67840;BME280;54636;51.684;5.142;2023-02-13T14:04:02;103599.91;;;10.85;81.66
67840;BME280;54636;51.684;5.142;2023-02-13T14:14:54;103589.31;;;10.91;80.28
67840;BME280;54636;51.684;5.142;2023-02-13T14:22:48;103588.38;;;11.01;78.83
67840;BME280;54636;51.684;5.142;2023-02-13T14:25:39;103578.88;;;11.09;78.48
67840;BME280;54636;51.684;5.142;2023-02-13T14:28:05;103575.47;;;11.05;78.93
67840;BME280;54636;51.684;5.142;2023-02-13T14:33:02;103576.31;;;11.02;79.93
67840;BME280;54636;51.684;5.142;2023-02-13T14:35:32;103574.06;;;10.97;79.92
67840;BME280;54636;51.684;5.142;2023-02-13T14:38:01;103569.81;;;10.96;79.56
67840;BME280;54636;51.684;5.142;2023-02-13T14:43:38;103574.72;;;11.04;79.43
67840;BME280;54636;51.684;5.142;2023-02-13T14:48:56;103576.31;;;11.02;77.78
67840;BME280;54636;51.684;5.142;2023-02-13T14:51:32;103574.53;;;10.92;78.75
67840;BME280;54636;51.684;5.142;2023-02-13T14:54:05;103564.16;;;11.06;77.99
67840;BME280;54636;51.684;5.142;2023-02-13T14:56:33;103570.28;;;11.10;77.88
67840;BME280;54636;51.684;5.142;2023-02-13T15:01:45;103562.91;;;10.91;80.51
67840;BME280;54636;51.684;5.142;2023-02-13T15:06:44;103561.28;;;10.94;81.05
67840;BME280;54636;51.684;5.142;2023-02-13T15:09:27;103555.84;;;10.94;80.72
67840;BME280;54636;51.684;5.142;2023-02-13T15:11:56;103554.69;;;10.95;80.98
67840;BME280;54636;51.684;5.142;2023-02-13T15:14:33;103554.31;;;10.93;81.55
67840;BME280;54636;51.684;5.142;2023-02-13T15:17:06;103556.41;;;10.85;82.21
67840;BME280;54636;51.684;5.142;2023-02-13T15:19:34;103546.75;;;10.80;82.56
67840;BME280;54636;51.684;5.142;2023-02-13T15:22:03;103550.13;;;10.88;82.84
67840;BME280;54636;51.684;5.142;2023-02-13T15:24:42;103539.03;;;10.79;82.78
67840;BME280;54636;51.684;5.142;2023-02-13T15:27:19;103546.53;;;10.71;83.75
67840;BME280;54636;51.684;5.142;2023-02-13T15:32:35;103537.03;;;10.60;83.93
67840;BME280;54636;51.684;5.142;2023-02-13T15:35:13;103536.91;;;10.67;83.31
67840;BME280;54636;51.684;5.142;2023-02-13T15:37:45;103535.53;;;10.55;84.05
67840;BME280;54636;51.684;5.142;2023-02-13T15:40:29;103535.94;;;10.53;84.69
67840;BME280;54636;51.684;5.142;2023-02-13T15:42:56;103536.97;;;10.63;83.72
67840;BME280;54636;51.684;5.142;2023-02-13T15:45:25;103542.22;;;10.50;84.85
67840;BME280;54636;51.684;5.142;2023-02-13T15:47:51;103535.25;;;10.49;84.50
67840;BME280;54636;51.684;5.142;2023-02-13T15:50:34;103541.28;;;10.61;83.87
67840;BME280;54636;51.684;5.142;2023-02-13T15:53:04;103534.84;;;10.51;84.29
67840;BME280;54636;51.684;5.142;2023-02-13T15:55:34;103530.41;;;10.37;85.10
67840;BME280;54636;51.684;5.142;2023-02-13T15:58:01;103534.31;;;10.36;85.46